sensor_id;sensor_type;location;lat;lon;timestamp;pressure;altitude;pressure_sealevel;temperature;humidity
20015;BME280;61787;42.022;23.078;2022-10-28T00:00:08;97976.81;;;13.05;58.91
20015;BME280;61787;42.022;23.078;2022-10-28T00:01:18;97973.94;;;13.10;58.64
20015;BME280;61787;42.022;23.078;2022-10-28T00:02:20;97980.78;;;13.16;58.86
20015;BME280;61787;42.022;23.078;2022-10-28T00:03:22;97983.28;;;13.21;58.63
20015;BME280;61787;42.022;23.078;2022-10-28T00:04:23;97986.63;;;13.27;58.58
20015;BME280;61787;42.022;23.078;2022-10-28T00:05:25;97978.19;;;13.29;58.33
20015;BME280;61787;42.022;23.078;2022-10-28T00:06:29;97986.13;;;13.34;57.72
20015;BME280;61787;42.022;23.078;2022-10-28T00:07:31;97982.78;;;13.37;58.00
20015;BME280;61787;42.022;23.078;2022-10-28T00:08:33;97991.78;;;13.41;57.92
20015;BME280;61787;42.022;23.078;2022-10-28T00:09:34;97989.56;;;13.43;57.73
20015;BME280;61787;42.022;23.078;2022-10-28T00:10:36;97986.53;;;13.44;57.99
20015;BME280;61787;42.022;23.078;2022-10-28T00:11:38;97982.78;;;13.37;58.06
20015;BME280;61787;42.022;23.078;2022-10-28T00:12:39;97986.56;;;13.36;58.34
20015;BME280;61787;42.022;23.078;2022-10-28T00:13:42;97983.25;;;13.39;58.24
20015;BME280;61787;42.022;23.078;2022-10-28T00:14:44;97985.13;;;13.47;57.87
20015;BME280;61787;42.022;23.078;2022-10-28T00:15:45;97983.53;;;13.46;58.07
20015;BME280;61787;42.022;23.078;2022-10-28T00:16:47;97986.72;;;13.48;58.24
20015;BME280;61787;42.022;23.078;2022-10-28T00:17:49;97987.63;;;13.52;57.95
20015;BME280;61787;42.022;23.078;2022-10-28T00:18:52;97981.44;;;13.51;57.93
20015;BME280;61787;42.022;23.078;2022-10-28T00:19:54;97974.66;;;13.54;57.56
20015;BME280;61787;42.022;23.078;2022-10-28T00:21:05;97970.00;;;13.54;57.55
20015;BME280;61787;42.022;23.078;2022-10-28T00:22:07;97971.78;;;13.59;57.48
20015;BME280;61787;42.022;23.078;2022-10-28T00:23:08;97977.59;;;13.61;57.58
20015;BME280;61787;42.022;23.078;2022-10-28T00:24:12;97971.91;;;13.62;57.71
20015;BME280;61787;42.022;23.078;2022-10-28T00:25:14;97974.72;;;13.66;57.43
20015;BME280;61787;42.022;23.078;2022-10-28T00:26:20;97979.81;;;13.68;57.45
20015;BME280;61787;42.022;23.078;2022-10-28T00:27:22;97975.22;;;13.68;57.45
20015;BME280;61787;42.022;23.078;2022-10-28T00:28:23;97978.34;;;13.70;57.56
20015;BME280;61787;42.022;23.078;2022-10-28T00:29:25;97972.97;;;13.70;57.58
20015;BME280;61787;42.022;23.078;2022-10-28T00:30:27;97975.84;;;13.65;57.62
20015;BME280;61787;42.022;23.078;2022-10-28T00:31:29;97978.88;;;13.63;57.75
20015;BME280;61787;42.022;23.078;2022-10-28T00:32:31;97972.69;;;13.63;57.51
20015;BME280;61787;42.022;23.078;2022-10-28T00:33:33;97974.28;;;13.64;56.92
20015;BME280;61787;42.022;23.078;2022-10-28T00:34:34;97973.50;;;13.63;57.35
20015;BME280;61787;42.022;23.078;2022-10-28T00:35:36;97972.69;;;13.63;57.21
20015;BME280;61787;42.022;23.078;2022-10-28T00:36:40;97975.84;;;13.65;57.20
20015;BME280;61787;42.022;23.078;2022-10-28T00:37:41;97985.50;;;13.66;57.03
20015;BME280;61787;42.022;23.078;2022-10-28T00:38:45;97975.22;;;13.68;57.01
20015;BME280;61787;42.022;23.078;2022-10-28T00:39:47;97972.97;;;13.70;56.91
20015;BME280;61787;42.022;23.078;2022-10-28T00:40:49;97973.75;;;13.71;57.24
20015;BME280;61787;42.022;23.078;2022-10-28T00:41:56;97971.44;;;13.60;57.40
20015;BME280;61787;42.022;23.078;2022-10-28T00:42:58;97977.00;;;13.55;57.75
20015;BME280;61787;42.022;23.078;2022-10-28T00:44:35;97977.97;;;13.51;57.88
20015;BME280;61787;42.022;23.078;2022-10-28T00:45:23;97980.03;;;13.54;57.93
20015;BME280;61787;42.022;23.078;2022-10-28T00:46:41;97979.56;;;13.52;57.96
20015;BME280;61787;42.022;23.078;2022-10-28T00:47:51;97986.72;;;13.48;58.23
20015;BME280;61787;42.022;23.078;2022-10-28T00:49:16;97979.72;;;13.47;58.28
20015;BME280;61787;42.022;23.078;2022-10-28T00:50:31;97982.44;;;13.47;57.99
20015;BME280;61787;42.022;23.078;2022-10-28T00:51:39;97979.59;;;13.43;58.08
20015;BME280;61787;42.022;23.078;2022-10-28T00:52:42;97974.38;;;13.30;58.43
20015;BME280;61787;42.022;23.078;2022-10-28T00:53:49;97979.19;;;13.15;58.86
20015;BME280;61787;42.022;23.078;2022-10-28T00:54:52;97982.03;;;13.10;58.93
20015;BME280;61787;42.022;23.078;2022-10-28T00:55:55;97982.03;;;13.10;59.00
20015;BME280;61787;42.022;23.078;2022-10-28T00:57:01;97989.03;;;13.11;59.05
20015;BME280;61787;42.022;23.078;2022-10-28T00:58:05;97983.63;;;13.03;59.16
20015;BME280;61787;42.022;23.078;2022-10-28T00:59:19;97987.91;;;12.95;59.62
20015;BME280;61787;42.022;23.078;2022-10-28T01:00:24;97985.69;;;12.89;59.15
20015;BME280;61787;42.022;23.078;2022-10-28T01:01:26;97982.38;;;12.83;59.52
20015;BME280;61787;42.022;23.078;2022-10-28T01:02:27;97980.81;;;12.82;60.04
20015;BME280;61787;42.022;23.078;2022-10-28T01:03:29;97979.22;;;12.81;59.95
20015;BME280;61787;42.022;23.078;2022-10-28T01:04:31;97981.13;;;12.80;60.52
20015;BME280;61787;42.022;23.078;2022-10-28T01:05:35;97980.97;;;12.77;59.83
20015;BME280;61787;42.022;23.078;2022-10-28T01:06:40;97983.94;;;12.84;60.05
20015;BME280;61787;42.022;23.078;2022-10-28T01:07:42;97977.94;;;12.87;59.49
20015;BME280;61787;42.022;23.078;2022-10-28T01:08:44;97984.28;;;12.91;59.68
20015;BME280;61787;42.022;23.078;2022-10-28T01:09:46;97976.03;;;12.96;59.88
20015;BME280;61787;42.022;23.078;2022-10-28T01:12:13;97978.69;;;13.05;59.15
20015;BME280;61787;42.022;23.078;2022-10-28T01:13:39;97984.22;;;13.08;58.70
20015;BME280;61787;42.022;23.078;2022-10-28T01:18:56;97982.81;;;13.19;57.96
20015;BME280;61787;42.022;23.078;2022-10-28T01:20:33;97983.00;;;13.14;58.25
20015;BME280;61787;42.022;23.078;2022-10-28T01:23:34;97984.41;;;13.03;58.76
20015;BME280;61787;42.022;23.078;2022-10-28T01:26:06;97985.03;;;13.09;58.25
20015;BME280;61787;42.022;23.078;2022-10-28T01:30:10;97980.94;;;13.03;58.88
20015;BME280;61787;42.022;23.078;2022-10-28T01:31:28;97975.88;;;13.01;58.75
20015;BME280;61787;42.022;23.078;2022-10-28T01:33:53;97982.53;;;12.95;58.76
20015;BME280;61787;42.022;23.078;2022-10-28T01:36:41;97984.44;;;12.77;59.55
20015;BME280;61787;42.022;23.078;2022-10-28T01:38:10;97979.84;;;12.78;59.92
20015;BME280;61787;42.022;23.078;2022-10-28T01:40:32;97978.88;;;12.82;59.28
20015;BME280;61787;42.022;23.078;2022-10-28T01:41:51;97982.06;;;12.85;59.77
20015;BME280;61787;42.022;23.078;2022-10-28T01:46:15;97976.19;;;12.91;60.11
20015;BME280;61787;42.022;23.078;2022-10-28T01:47:23;97989.00;;;12.94;59.30
20015;BME280;61787;42.022;23.078;2022-10-28T01:48:42;97989.31;;;13.01;59.43
20015;BME280;61787;42.022;23.078;2022-10-28T01:51:16;97992.47;;;13.03;59.23
20015;BME280;61787;42.022;23.078;2022-10-28T01:52:23;97985.69;;;13.06;58.82
20015;BME280;61787;42.022;23.078;2022-10-28T01:53:29;97984.88;;;13.05;58.72
20015;BME280;61787;42.022;23.078;2022-10-28T01:54:32;97990.28;;;13.05;58.94
20015;BME280;61787;42.022;23.078;2022-10-28T01:55:37;97983.28;;;13.04;59.34
20015;BME280;61787;42.022;23.078;2022-10-28T01:56:42;97986.31;;;13.03;59.45
20015;BME280;61787;42.022;23.078;2022-10-28T01:57:46;97986.16;;;12.99;59.39
20015;BME280;61787;42.022;23.078;2022-10-28T01:58:52;97979.19;;;12.98;58.98
20015;BME280;61787;42.022;23.078;2022-10-28T01:59:56;97986.94;;;13.00;59.21
20015;BME280;61787;42.022;23.078;2022-10-28T02:00:59;97986.16;;;12.99;59.07
20015;BME280;61787;42.022;23.078;2022-10-28T02:02:05;97987.75;;;13.00;59.04
20015;BME280;61787;42.022;23.078;2022-10-28T02:03:07;97992.34;;;13.00;59.30
20015;BME280;61787;42.022;23.078;2022-10-28T02:04:09;97983.81;;;12.98;59.10
20015;BME280;61787;42.022;23.078;2022-10-28T02:06:43;97993.91;;;13.01;59.13
20015;BME280;61787;42.022;23.078;2022-10-28T02:07:47;97986.31;;;13.03;58.97
20015;BME280;61787;42.022;23.078;2022-10-28T02:10:05;97989.94;;;12.98;58.75
20015;BME280;61787;42.022;23.078;2022-10-28T02:12:33;97983.16;;;13.01;59.34
20015;BME280;61787;42.022;23.078;2022-10-28T02:16:14;97982.66;;;13.07;58.51
20015;BME280;61787;42.022;23.078;2022-10-28T02:21:00;97983.81;;;12.98;59.09
20015;BME280;61787;42.022;23.078;2022-10-28T02:23:44;97988.88;;;12.91;58.80
20015;BME280;61787;42.022;23.078;2022-10-28T02:28:57;97995.66;;;12.88;58.67
20015;BME280;61787;42.022;23.078;2022-10-28T02:30:07;97994.88;;;12.88;58.93
20015;BME280;61787;42.022;23.078;2022-10-28T02:31:23;97998.22;;;12.85;59.39
20015;BME280;61787;42.022;23.078;2022-10-28T02:32:29;97988.22;;;12.85;59.44
20015;BME280;61787;42.022;23.078;2022-10-28T02:33:35;97996.31;;;12.85;59.53
20015;BME280;61787;42.022;23.078;2022-10-28T02:34:42;97990.63;;;12.87;59.89
20015;BME280;61787;42.022;23.078;2022-10-28T02:35:52;97983.34;;;12.87;59.50
20015;BME280;61787;42.022;23.078;2022-10-28T02:36:56;97984.44;;;12.86;59.42
20015;BME280;61787;42.022;23.078;2022-10-28T02:38:04;97988.72;;;12.87;60.02
20015;BME280;61787;42.022;23.078;2022-10-28T02:39:07;97986.47;;;12.89;59.65
20015;BME280;61787;42.022;23.078;2022-10-28T02:40:14;97991.88;;;12.89;59.00
20015;BME280;61787;42.022;23.078;2022-10-28T02:41:28;97989.19;;;12.89;59.47
20015;BME280;61787;42.022;23.078;2022-10-28T02:42:37;97989.47;;;12.88;59.35
20015;BME280;61787;42.022;23.078;2022-10-28T02:43:42;97996.31;;;12.85;59.60
20015;BME280;61787;42.022;23.078;2022-10-28T02:44:48;97995.38;;;12.81;59.79
20015;BME280;61787;42.022;23.078;2022-10-28T02:45:55;98002.50;;;12.77;60.03
20015;BME280;61787;42.022;23.078;2022-10-28T02:47:00;98000.28;;;12.70;60.08
20015;BME280;61787;42.022;23.078;2022-10-28T02:48:10;98004.06;;;12.69;59.97
20015;BME280;61787;42.022;23.078;2022-10-28T02:49:13;98012.94;;;12.70;60.12
20015;BME280;61787;42.022;23.078;2022-10-28T02:50:17;98006.78;;;12.69;60.32
20015;BME280;61787;42.022;23.078;2022-10-28T02:51:25;98006.47;;;12.71;60.25
20015;BME280;61787;42.022;23.078;2022-10-28T02:52:31;98007.25;;;12.71;60.20
20015;BME280;61787;42.022;23.078;2022-10-28T02:55:05;98010.25;;;12.70;59.98
20015;BME280;61787;42.022;23.078;2022-10-28T02:56:08;98004.38;;;12.68;60.24
20015;BME280;61787;42.022;23.078;2022-10-28T02:57:18;98006.13;;;12.64;60.45
20015;BME280;61787;42.022;23.078;2022-10-28T02:58:22;98006.78;;;12.61;60.28
20015;BME280;61787;42.022;23.078;2022-10-28T02:59:24;98004.25;;;12.56;60.38
20015;BME280;61787;42.022;23.078;2022-10-28T03:00:26;98012.63;;;12.46;61.46
20015;BME280;61787;42.022;23.078;2022-10-28T03:01:27;98011.97;;;12.40;61.56
20015;BME280;61787;42.022;23.078;2022-10-28T03:02:29;98010.25;;;12.35;61.49
20015;BME280;61787;42.022;23.078;2022-10-28T03:03:31;98017.19;;;12.36;61.52
20015;BME280;61787;42.022;23.078;2022-10-28T03:04:32;98015.44;;;12.32;61.13
20015;BME280;61787;42.022;23.078;2022-10-28T03:05:34;98009.91;;;12.28;61.51
20015;BME280;61787;42.022;23.078;2022-10-28T03:06:35;98013.22;;;12.25;61.79
20015;BME280;61787;42.022;23.078;2022-10-28T03:07:37;98015.59;;;12.27;61.71
20015;BME280;61787;42.022;23.078;2022-10-28T03:08:39;98015.28;;;12.28;62.02
20015;BME280;61787;42.022;23.078;2022-10-28T03:09:40;98017.47;;;12.26;61.97
20015;BME280;61787;42.022;23.078;2022-10-28T03:10:42;98019.72;;;12.24;61.77
20015;BME280;61787;42.022;23.078;2022-10-28T03:11:43;98012.75;;;12.23;61.49
20015;BME280;61787;42.022;23.078;2022-10-28T03:12:45;98023.50;;;12.23;61.51
20015;BME280;61787;42.022;23.078;2022-10-28T03:13:46;98020.50;;;12.25;61.73
20015;BME280;61787;42.022;23.078;2022-10-28T03:14:48;98014.47;;;12.28;62.05
20015;BME280;61787;42.022;23.078;2022-10-28T03:15:49;98014.78;;;12.26;61.93
20015;BME280;61787;42.022;23.078;2022-10-28T03:16:51;98021.44;;;12.29;61.76
20015;BME280;61787;42.022;23.078;2022-10-28T03:17:53;98023.66;;;12.27;61.94
20015;BME280;61787;42.022;23.078;2022-10-28T03:18:54;98018.56;;;12.17;61.88
20015;BME280;61787;42.022;23.078;2022-10-28T03:19:56;98020.00;;;12.14;62.49
20015;BME280;61787;42.022;23.078;2022-10-28T03:20:58;98026.63;;;12.17;62.63
20015;BME280;61787;42.022;23.078;2022-10-28T03:21:59;98022.69;;;12.23;61.88
20015;BME280;61787;42.022;23.078;2022-10-28T03:23:01;98022.84;;;12.26;61.54
20015;BME280;61787;42.022;23.078;2022-10-28T03:24:02;98023.84;;;12.30;61.98
20015;BME280;61787;42.022;23.078;2022-10-28T03:25:04;98025.41;;;12.31;61.98
20015;BME280;61787;42.022;23.078;2022-10-28T03:26:06;98015.78;;;12.30;61.71
20015;BME280;61787;42.022;23.078;2022-10-28T03:27:07;98018.13;;;12.32;61.96
20015;BME280;61787;42.022;23.078;2022-10-28T03:28:09;98021.59;;;12.32;61.69
20015;BME280;61787;42.022;23.078;2022-10-28T03:29:10;98018.63;;;12.34;61.57
20015;BME280;61787;42.022;23.078;2022-10-28T03:30:12;98021.00;;;12.35;61.67
20015;BME280;61787;42.022;23.078;2022-10-28T03:31:14;98025.41;;;12.31;61.64
20015;BME280;61787;42.022;23.078;2022-10-28T03:32:17;98022.25;;;12.29;61.61
20015;BME280;61787;42.022;23.078;2022-10-28T03:33:19;98021.16;;;12.30;61.59
20015;BME280;61787;42.022;23.078;2022-10-28T03:34:20;98020.00;;;12.31;60.95
20015;BME280;61787;42.022;23.078;2022-10-28T03:35:22;98021.16;;;12.30;60.98
20015;BME280;61787;42.022;23.078;2022-10-28T03:36:23;98028.09;;;12.31;61.42
20015;BME280;61787;42.022;23.078;2022-10-28T03:37:25;98025.72;;;12.30;61.24
20015;BME280;61787;42.022;23.078;2022-10-28T03:38:26;98028.09;;;12.31;61.10
20015;BME280;61787;42.022;23.078;2022-10-28T03:39:28;98024.94;;;12.29;60.93
20015;BME280;61787;42.022;23.078;2022-10-28T03:40:30;98021.59;;;12.32;60.53
20015;BME280;61787;42.022;23.078;2022-10-28T03:41:31;98022.72;;;12.31;60.50
20015;BME280;61787;42.022;23.078;2022-10-28T03:42:33;98024.28;;;12.32;60.14
20015;BME280;61787;42.022;23.078;2022-10-28T03:43:39;98028.56;;;12.33;60.96
20015;BME280;61787;42.022;23.078;2022-10-28T03:44:40;98022.72;;;12.31;60.93
20015;BME280;61787;42.022;23.078;2022-10-28T03:45:42;98020.81;;;12.32;60.65
20015;BME280;61787;42.022;23.078;2022-10-28T03:46:44;98034.75;;;12.34;60.30
20015;BME280;61787;42.022;23.078;2022-10-28T03:47:46;98029.69;;;12.32;60.63
20015;BME280;61787;42.022;23.078;2022-10-28T03:48:47;98028.56;;;12.33;61.09
20015;BME280;61787;42.022;23.078;2022-10-28T03:49:49;98030.00;;;12.31;61.17
20015;BME280;61787;42.022;23.078;2022-10-28T03:50:54;98025.41;;;12.31;61.57
20015;BME280;61787;42.022;23.078;2022-10-28T03:51:55;98025.41;;;12.31;61.05
20015;BME280;61787;42.022;23.078;2022-10-28T03:52:57;98026.19;;;12.32;61.41
20015;BME280;61787;42.022;23.078;2022-10-28T03:53:59;98027.13;;;12.27;61.55
20015;BME280;61787;42.022;23.078;2022-10-28T03:55:00;98018.91;;;12.24;61.13
20015;BME280;61787;42.022;23.078;2022-10-28T03:56:02;98023.00;;;12.21;61.85
20015;BME280;61787;42.022;23.078;2022-10-28T03:57:04;98029.97;;;12.14;62.50
20015;BME280;61787;42.022;23.078;2022-10-28T03:58:05;98025.38;;;12.14;61.83
20015;BME280;61787;42.022;23.078;2022-10-28T03:59:10;98022.34;;;12.16;62.06
20015;BME280;61787;42.022;23.078;2022-10-28T04:00:15;98021.09;;;12.13;62.09
20015;BME280;61787;42.022;23.078;2022-10-28T04:01:17;98021.09;;;12.13;61.66
20015;BME280;61787;42.022;23.078;2022-10-28T04:02:18;98014.94;;;12.13;62.70
20015;BME280;61787;42.022;23.078;2022-10-28T04:03:21;98019.22;;;12.14;62.20
20015;BME280;61787;42.022;23.078;2022-10-28T04:04:24;98015.72;;;12.13;62.65
20015;BME280;61787;42.022;23.078;2022-10-28T04:05:31;98020.00;;;12.14;62.56
20015;BME280;61787;42.022;23.078;2022-10-28T04:06:32;98021.59;;;12.15;63.26
20015;BME280;61787;42.022;23.078;2022-10-28T04:07:34;98013.03;;;12.13;62.21
20015;BME280;61787;42.022;23.078;2022-10-28T04:08:36;98020.97;;;12.18;62.17
20015;BME280;61787;42.022;23.078;2022-10-28T04:09:37;98017.16;;;12.19;62.16
20015;BME280;61787;42.022;23.078;2022-10-28T04:10:39;98018.25;;;12.18;62.08
20015;BME280;61787;42.022;23.078;2022-10-28T04:11:47;98017.78;;;12.16;62.54
20015;BME280;61787;42.022;23.078;2022-10-28T04:12:49;98014.63;;;12.14;62.55
20015;BME280;61787;42.022;23.078;2022-10-28T04:13:51;98020.59;;;12.11;61.98
20015;BME280;61787;42.022;23.078;2022-10-28T04:14:53;98013.69;;;12.10;62.54
20015;BME280;61787;42.022;23.078;2022-10-28T04:15:54;98015.22;;;12.11;64.00
20015;BME280;61787;42.022;23.078;2022-10-28T04:16:57;98022.84;;;12.09;63.76
20015;BME280;61787;42.022;23.078;2022-10-28T04:17:59;98021.88;;;12.05;64.22
20015;BME280;61787;42.022;23.078;2022-10-28T04:19:00;98023.44;;;12.06;63.40
20015;BME280;61787;42.022;23.078;2022-10-28T04:20:03;98028.38;;;12.04;63.86
20015;BME280;61787;42.022;23.078;2022-10-28T04:21:05;98025.19;;;12.02;63.14
20015;BME280;61787;42.022;23.078;2022-10-28T04:22:06;98020.28;;;12.04;63.09
20015;BME280;61787;42.022;23.078;2022-10-28T04:23:13;98025.03;;;12.07;63.66
20015;BME280;61787;42.022;23.078;2022-10-28T04:24:16;98026.63;;;12.08;63.53
20015;BME280;61787;42.022;23.078;2022-10-28T04:25:17;98028.22;;;12.09;63.97
20015;BME280;61787;42.022;23.078;2022-10-28T04:26:19;98020.16;;;12.09;64.16
20015;BME280;61787;42.022;23.078;2022-10-28T04:27:20;98026.63;;;12.08;63.44
20015;BME280;61787;42.022;23.078;2022-10-28T04:28:22;98021.25;;;12.08;62.77
20015;BME280;61787;42.022;23.078;2022-10-28T04:29:24;98024.44;;;12.10;62.25
20015;BME280;61787;42.022;23.078;2022-10-28T04:30:26;98021.25;;;12.08;62.13
20015;BME280;61787;42.022;23.078;2022-10-28T04:31:27;98032.00;;;12.08;62.70
20015;BME280;61787;42.022;23.078;2022-10-28T04:32:29;98032.00;;;12.08;62.60
20015;BME280;61787;42.022;23.078;2022-10-28T04:33:31;98034.19;;;12.06;62.30
20015;BME280;61787;42.022;23.078;2022-10-28T04:34:32;98028.66;;;12.03;62.24
20015;BME280;61787;42.022;23.078;2022-10-28T04:35:34;98023.59;;;12.01;62.09
20015;BME280;61787;42.022;23.078;2022-10-28T04:36:35;98032.28;;;11.98;62.37
20015;BME280;61787;42.022;23.078;2022-10-28T04:37:38;98027.53;;;11.95;62.03
20015;BME280;61787;42.022;23.078;2022-10-28T04:38:40;98030.25;;;11.95;63.78
20015;BME280;61787;42.022;23.078;2022-10-28T04:39:41;98028.66;;;11.94;63.24
20015;BME280;61787;42.022;23.078;2022-10-28T04:40:46;98024.84;;;11.95;63.53
20015;BME280;61787;42.022;23.078;2022-10-28T04:41:48;98028.00;;;11.97;62.32
20015;BME280;61787;42.022;23.078;2022-10-28T04:42:49;98023.13;;;11.99;63.08
20015;BME280;61787;42.022;23.078;2022-10-28T04:43:51;98031.66;;;12.01;62.17
20015;BME280;61787;42.022;23.078;2022-10-28T04:44:53;98024.38;;;12.02;61.96
20015;BME280;61787;42.022;23.078;2022-10-28T04:45:55;98037.81;;;12.02;62.13
20015;BME280;61787;42.022;23.078;2022-10-28T04:46:56;98034.03;;;12.03;62.09
20015;BME280;61787;42.022;23.078;2022-10-28T04:47:59;98028.50;;;11.99;62.30
20015;BME280;61787;42.022;23.078;2022-10-28T04:49:01;98028.31;;;11.95;62.24
20015;BME280;61787;42.022;23.078;2022-10-28T04:50:03;98030.38;;;11.90;62.73
20015;BME280;61787;42.022;23.078;2022-10-28T04:51:05;98025.25;;;11.80;63.01
20015;BME280;61787;42.022;23.078;2022-10-28T04:52:06;98027.31;;;11.74;63.38
20015;BME280;61787;42.022;23.078;2022-10-28T04:53:12;98027.09;;;11.71;63.61
20015;BME280;61787;42.022;23.078;2022-10-28T04:54:13;98034.69;;;11.69;63.91
20015;BME280;61787;42.022;23.078;2022-10-28T04:55:15;98027.56;;;11.64;63.87
20015;BME280;61787;42.022;23.078;2022-10-28T04:56:17;98021.38;;;11.64;63.85
20015;BME280;61787;42.022;23.078;2022-10-28T04:57:18;98018.22;;;11.62;64.28
20015;BME280;61787;42.022;23.078;2022-10-28T04:58:20;98026.75;;;11.64;64.13
20015;BME280;61787;42.022;23.078;2022-10-28T04:59:21;98020.88;;;11.62;63.56
20015;BME280;61787;42.022;23.078;2022-10-28T05:00:24;98031.34;;;11.63;63.69
20015;BME280;61787;42.022;23.078;2022-10-28T05:01:25;98027.56;;;11.64;63.67
20015;BME280;61787;42.022;23.078;2022-10-28T05:02:27;98027.38;;;11.61;63.48
20015;BME280;61787;42.022;23.078;2022-10-28T05:03:29;98032.13;;;11.64;62.91
20015;BME280;61787;42.022;23.078;2022-10-28T05:04:30;98027.72;;;11.68;63.18
20015;BME280;61787;42.022;23.078;2022-10-28T05:05:32;98030.31;;;11.73;63.25
20015;BME280;61787;42.022;23.078;2022-10-28T05:06:34;98024.94;;;11.73;63.53
20015;BME280;61787;42.022;23.078;2022-10-28T05:07:35;98025.38;;;11.75;63.10
20015;BME280;61787;42.022;23.078;2022-10-28T05:08:38;98028.41;;;11.73;62.66
20015;BME280;61787;42.022;23.078;2022-10-28T05:09:39;98030.31;;;11.73;63.86
20015;BME280;61787;42.022;23.078;2022-10-28T05:10:41;98035.16;;;11.71;63.16
20015;BME280;61787;42.022;23.078;2022-10-28T05:11:42;98031.66;;;11.70;63.21
20015;BME280;61787;42.022;23.078;2022-10-28T05:12:44;98029.31;;;11.69;63.06
20015;BME280;61787;42.022;23.078;2022-10-28T05:13:46;98032.69;;;11.74;63.29
20015;BME280;61787;42.022;23.078;2022-10-28T05:14:48;98032.84;;;11.78;63.14
20015;BME280;61787;42.022;23.078;2022-10-28T05:15:53;98033.44;;;11.75;63.75
20015;BME280;61787;42.022;23.078;2022-10-28T05:16:54;98036.22;;;11.61;64.30
20015;BME280;61787;42.022;23.078;2022-10-28T05:17:56;98044.19;;;11.44;65.23
20015;BME280;61787;42.022;23.078;2022-10-28T05:18:58;98037.03;;;11.39;65.20
20015;BME280;61787;42.022;23.078;2022-10-28T05:19:59;98034.84;;;11.41;65.21
20015;BME280;61787;42.022;23.078;2022-10-28T05:21:01;98045.44;;;11.38;65.34
20015;BME280;61787;42.022;23.078;2022-10-28T05:22:02;98038.09;;;11.30;65.41
20015;BME280;61787;42.022;23.078;2022-10-28T05:23:04;98045.69;;;11.28;66.15
20015;BME280;61787;42.022;23.078;2022-10-28T05:24:06;98047.81;;;11.17;65.95
20015;BME280;61787;42.022;23.078;2022-10-28T05:25:08;98045.13;;;11.17;73.78
20015;BME280;61787;42.022;23.078;2022-10-28T05:26:09;98050.84;;;11.24;73.22
20015;BME280;61787;42.022;23.078;2022-10-28T05:27:11;98053.06;;;11.22;70.68
20015;BME280;61787;42.022;23.078;2022-10-28T05:28:13;98054.16;;;11.21;68.51
20015;BME280;61787;42.022;23.078;2022-10-28T05:29:14;98053.06;;;11.22;68.22
20015;BME280;61787;42.022;23.078;2022-10-28T05:30:16;98053.88;;;11.23;67.97
20015;BME280;61787;42.022;23.078;2022-10-28T05:31:18;98061.59;;;11.24;67.87
20015;BME280;61787;42.022;23.078;2022-10-28T05:32:19;98065.88;;;11.25;67.03
20015;BME280;61787;42.022;23.078;2022-10-28T05:33:21;98059.84;;;11.20;67.45
20015;BME280;61787;42.022;23.078;2022-10-28T05:34:23;98058.06;;;11.15;67.96
20015;BME280;61787;42.022;23.078;2022-10-28T05:35:24;98056.72;;;11.04;67.23
20015;BME280;61787;42.022;23.078;2022-10-28T05:36:26;98061.41;;;10.98;67.20
20015;BME280;61787;42.022;23.078;2022-10-28T05:37:27;98066.47;;;11.00;67.65
20015;BME280;61787;42.022;23.078;2022-10-28T05:38:29;98065.38;;;11.01;66.68
20015;BME280;61787;42.022;23.078;2022-10-28T05:39:30;98071.47;;;10.93;68.26
20015;BME280;61787;42.022;23.078;2022-10-28T05:40:32;98071.28;;;10.89;67.39
20015;BME280;61787;42.022;23.078;2022-10-28T05:41:34;98061.72;;;10.97;67.63
20015;BME280;61787;42.022;23.078;2022-10-28T05:42:42;98065.50;;;10.96;66.96
20015;BME280;61787;42.022;23.078;2022-10-28T05:43:44;98056.72;;;11.04;66.94
20015;BME280;61787;42.022;23.078;2022-10-28T05:44:46;98066.88;;;11.07;67.44
20015;BME280;61787;42.022;23.078;2022-10-28T05:45:52;98069.44;;;11.12;67.73
20015;BME280;61787;42.022;23.078;2022-10-28T05:46:54;98075.16;;;11.19;66.53
20015;BME280;61787;42.022;23.078;2022-10-28T05:47:56;98069.34;;;11.26;67.02
20015;BME280;61787;42.022;23.078;2022-10-28T05:48:58;98067.50;;;11.35;66.35
20015;BME280;61787;42.022;23.078;2022-10-28T05:49:59;98067.72;;;11.38;65.73
20015;BME280;61787;42.022;23.078;2022-10-28T05:51:01;98067.09;;;11.41;66.70
20015;BME280;61787;42.022;23.078;2022-10-28T05:52:03;98069.00;;;11.49;66.98
20015;BME280;61787;42.022;23.078;2022-10-28T05:53:04;98065.59;;;11.58;66.45
20015;BME280;61787;42.022;23.078;2022-10-28T05:54:06;98070.03;;;11.62;65.68
20015;BME280;61787;42.022;23.078;2022-10-28T05:55:08;98070.72;;;11.68;66.11
20015;BME280;61787;42.022;23.078;2022-10-28T05:56:09;98072.47;;;11.72;66.45
20015;BME280;61787;42.022;23.078;2022-10-28T05:57:11;98070.47;;;11.78;65.84
20015;BME280;61787;42.022;23.078;2022-10-28T05:58:13;98070.16;;;11.79;66.58
20015;BME280;61787;42.022;23.078;2022-10-28T05:59:14;98073.28;;;11.73;66.82
20015;BME280;61787;42.022;23.078;2022-10-28T06:00:18;98071.50;;;11.68;66.63
20015;BME280;61787;42.022;23.078;2022-10-28T06:01:20;98070.72;;;11.68;66.02
20015;BME280;61787;42.022;23.078;2022-10-28T06:02:21;98078.28;;;11.66;66.98
20015;BME280;61787;42.022;23.078;2022-10-28T06:03:23;98078.66;;;11.50;67.32
20015;BME280;61787;42.022;23.078;2022-10-28T06:04:31;98077.19;;;11.44;67.17
20015;BME280;61787;42.022;23.078;2022-10-28T06:05:41;98080.13;;;11.57;67.29
20015;BME280;61787;42.022;23.078;2022-10-28T06:06:43;98087.69;;;11.77;67.02
20015;BME280;61787;42.022;23.078;2022-10-28T06:07:44;98074.16;;;11.90;66.76
20015;BME280;61787;42.022;23.078;2022-10-28T06:08:46;98080.03;;;12.01;66.52
20015;BME280;61787;42.022;23.078;2022-10-28T06:09:48;98077.06;;;12.11;66.26
20015;BME280;61787;42.022;23.078;2022-10-28T06:10:52;98073.56;;;12.02;65.83